Airfield :
LOGIN :

Register | Disclaimer

   EN    FR    IT 

 










Legend :    VFR   Marginal VFR   IFR   Intensive IFR   Very Intensive IFR
Visi :
Ceiling :
>= 8 km
>= 3000ft
5 to 8 km
1000 to 3000 ft
1500m to 5 km
500 to 1000 ft
800 to 1500m
200 to 500 ft
< 800m
< 200 ft
Symbols :   Thunderstorms  Fog  Heavy snow  Heavy precipitations  Wind > 20 kt
SIGMETs :     Misc.  Thunderstorms  Icing  Turbulence  Mountain Waves  Volcanic Ashes






- Airport Elevation : 249 ft


EGOS - RAF Shawbury

CURRENT METAR :
  • 100950Z 18016KT 9999 -RA BKN015 OVC025 09/07 Q1007 TEMPO 18020G30KT 7000 RA SCT014 RMK WHT TEMPO GRN

EXPIRED METARs :
  • 100920Z 18016KT 9999 -RA BKN016 OVC030 08/06 Q1008 TEMPO 18020G30KT 7000 RA RMK WHT TEMPO WHT
  • 100850Z 17011KT 9999 BKN018 OVC070 08/05 Q1009 BECMG 18020G30KT RMK WHT BECMG WHT
  • 100750Z 16015KT 9999 -RA FEW017 BKN020 OVC080 07/05 Q1010 TEMPO 18020G30KT 7000 RA RMK WHT TEMPO WHT

TAF TAF EGOS
Valid from the 10 at 09:00 until the 10 at 18:00 UTC


100734Z 1009/1018 18015G25KT 9999 BKN020
BECMG 1009/1011 18025G35KT
TEMPO 1009/1017 7000 RA
PROB30
TEMPO 1009/1017 SCT012 BKN018
PROB30
TEMPO 1015/1017 18035G45KT 3000 +RA
BECMG 1017/1018 24015G25KT SCT025



MET'MAP, your aeronautical weather chart ! - Copyright ORBIFLY December 2007 - Disclaimer

ORBIFLY MET'MAP TEAM :

Programming & Development : Alexandra Zaïnal
Concept & original design : Baudouin d'Aumeries
Assistance for programming : Marc-Olivier Méhu
Technical & hardware support : Manuel Goepfert

Contact : metmap@orbifly.com




SOURCES & CREDITS :

   NOAA